createdAt,value
2022-10-22T00:00:46.202Z,26.43
2022-10-22T00:03:14.225Z,26.93
2022-10-22T00:05:41.656Z,26.57
2022-10-22T00:08:09.088Z,30.50
2022-10-22T00:10:38.693Z,29.17
2022-10-22T00:15:33.466Z,26.90
2022-10-22T00:18:01.187Z,26.50
2022-10-22T00:20:28.766Z,25.63
2022-10-22T00:22:56.279Z,27.47
2022-10-22T00:25:23.989Z,24.83
2022-10-22T00:27:51.584Z,22.23
2022-10-22T00:30:19.384Z,24.27
2022-10-22T00:32:47.164Z,25.13
2022-10-22T00:35:14.832Z,24.67
2022-10-22T00:37:42.246Z,24.30
2022-10-22T00:40:10.900Z,29.17
2022-10-22T00:42:38.966Z,30.67
2022-10-22T00:45:16.893Z,43.83
2022-10-22T00:47:54.595Z,30.07
2022-10-22T00:50:28.674Z,37.43
2022-10-22T00:52:58.091Z,37.70
2022-10-22T00:55:28.199Z,34.42
2022-10-22T00:57:57.633Z,39.10
2022-10-22T01:00:25.953Z,38.35
2022-10-22T01:02:55.855Z,25.35
2022-10-22T01:05:26.387Z,50.37
2022-10-22T01:07:54.583Z,38.63
2022-10-22T01:10:34.256Z,32.20
2022-10-22T01:13:17.691Z,32.50
2022-10-22T01:16:05.404Z,25.60
2022-10-22T01:18:39.295Z,24.47
2022-10-22T01:21:28.446Z,23.90
2022-10-22T01:24:12.071Z,24.40
2022-10-22T01:26:42.189Z,25.20
2022-10-22T01:29:26.624Z,24.70
2022-10-22T01:32:01.300Z,28.40
2022-10-22T01:34:30.993Z,41.40
2022-10-22T01:39:30.487Z,50.28
2022-10-22T01:41:58.395Z,53.43
2022-10-22T01:44:31.917Z,49.00
2022-10-22T01:47:21.479Z,27.83
2022-10-22T01:52:25.445Z,25.87
2022-10-22T01:55:03.594Z,24.90
2022-10-22T01:57:37.029Z,25.92
2022-10-22T02:00:10.147Z,23.23
2022-10-22T02:02:40.969Z,24.67
2022-10-22T02:05:16.952Z,30.47
2022-10-22T02:07:55.669Z,39.30
2022-10-22T02:10:25.015Z,48.97
2022-10-22T02:12:56.165Z,50.73
2022-10-22T02:15:26.242Z,43.67
2022-10-22T02:17:55.744Z,47.87
2022-10-22T02:20:27.850Z,45.72
2022-10-22T02:22:57.088Z,42.93
2022-10-22T02:25:28.620Z,39.42
2022-10-22T02:28:24.100Z,40.83
2022-10-22T02:31:01.012Z,42.40
2022-10-22T02:33:33.344Z,40.57
2022-10-22T02:36:02.689Z,39.07
2022-10-22T02:38:32.229Z,38.07
2022-10-22T02:40:59.960Z,31.58
2022-10-22T02:43:29.477Z,43.80
2022-10-22T02:45:57.301Z,63.87
2022-10-22T02:48:24.719Z,34.27
2022-10-22T02:50:52.210Z,34.07
2022-10-22T02:53:20.036Z,30.83
2022-10-22T02:55:47.333Z,37.80
2022-10-22T02:58:14.812Z,31.13
2022-10-22T03:00:42.860Z,43.33
2022-10-22T03:03:11.541Z,27.02
2022-10-22T03:05:38.914Z,26.40
2022-10-22T03:08:06.732Z,28.97
2022-10-22T03:10:34.202Z,24.37
2022-10-22T03:13:02.217Z,22.10
2022-10-22T03:15:29.925Z,23.80
2022-10-22T03:17:57.329Z,35.13
2022-10-22T03:20:24.724Z,38.40
2022-10-22T03:22:52.873Z,34.50
2022-10-22T03:25:24.404Z,37.40
2022-10-22T03:27:55.845Z,32.80
2022-10-22T03:30:23.320Z,31.67
2022-10-22T03:32:50.715Z,32.30
2022-10-22T03:35:18.493Z,29.07
2022-10-22T03:37:45.913Z,27.87
2022-10-22T03:40:14.059Z,32.23
2022-10-22T03:42:42.875Z,25.33
2022-10-22T03:45:10.895Z,32.92
2022-10-22T03:47:38.705Z,31.40
2022-10-22T03:50:07.265Z,32.47
2022-10-22T03:52:39.825Z,33.27
2022-10-22T03:55:09.006Z,41.23
2022-10-22T03:57:36.521Z,41.83
2022-10-22T04:00:06.335Z,43.43
2022-10-22T04:02:34.801Z,32.43
2022-10-22T04:05:02.786Z,28.63
2022-10-22T04:07:30.464Z,31.37
2022-10-22T04:09:57.833Z,27.77
2022-10-22T04:12:25.676Z,29.50
2022-10-22T04:14:53.163Z,25.27
2022-10-22T04:17:20.600Z,25.37
2022-10-22T04:19:48.417Z,33.77
2022-10-22T04:22:15.853Z,27.43
2022-10-22T04:24:43.276Z,27.43
2022-10-22T04:27:11.090Z,28.13
2022-10-22T04:29:38.692Z,32.40
2022-10-22T04:32:06.033Z,54.40
2022-10-22T04:34:35.573Z,35.23
2022-10-22T04:37:03.460Z,40.30
2022-10-22T04:39:31.012Z,36.83
2022-10-22T04:41:58.716Z,24.83
2022-10-22T04:44:26.064Z,29.47
2022-10-22T04:46:53.682Z,33.03
2022-10-22T04:49:21.535Z,36.33
2022-10-22T04:51:49.476Z,35.30
2022-10-22T04:54:16.907Z,30.37
2022-10-22T04:56:44.727Z,46.33
2022-10-22T04:59:13.054Z,45.20
2022-10-22T05:01:43.402Z,27.02
2022-10-22T05:04:14.129Z,50.63
2022-10-22T05:06:41.776Z,33.60
2022-10-22T05:09:14.917Z,34.90
2022-10-22T05:11:49.025Z,36.80
2022-10-22T05:14:19.901Z,35.60
2022-10-22T05:16:48.947Z,31.27
2022-10-22T05:21:57.164Z,31.43
2022-10-22T05:24:25.774Z,44.10
2022-10-22T05:26:54.943Z,46.05
2022-10-22T05:29:23.525Z,45.15
2022-10-22T05:31:51.408Z,105.93
2022-10-22T05:34:19.259Z,50.17
2022-10-22T05:36:47.092Z,50.10
2022-10-22T05:39:14.668Z,56.07
2022-10-22T05:41:42.529Z,39.10
2022-10-22T05:44:12.763Z,39.40
2022-10-22T05:46:40.997Z,33.90
2022-10-22T05:49:11.628Z,29.08
2022-10-22T05:51:39.157Z,29.63
2022-10-22T05:54:08.735Z,26.60
2022-10-22T05:56:37.639Z,26.30
2022-10-22T05:59:05.506Z,24.35
2022-10-22T06:01:37.531Z,24.77
2022-10-22T06:04:08.276Z,29.50
2022-10-22T06:06:39.716Z,23.13
2022-10-22T06:09:18.960Z,25.23
2022-10-22T06:11:47.869Z,23.67
2022-10-22T06:14:16.098Z,23.60
2022-10-22T06:16:43.584Z,19.40
2022-10-22T06:19:13.789Z,22.67
2022-10-22T06:21:41.613Z,32.67
2022-10-22T06:24:10.564Z,43.67
2022-10-22T06:26:38.616Z,52.38
2022-10-22T06:29:06.343Z,57.45
2022-10-22T06:31:37.143Z,38.53
2022-10-22T06:34:10.650Z,45.47
2022-10-22T06:39:06.794Z,37.47
2022-10-22T06:41:34.291Z,32.63
2022-10-22T06:44:03.459Z,30.77
2022-10-22T06:46:32.037Z,32.90
2022-10-22T06:49:02.601Z,31.25
2022-10-22T06:51:30.476Z,34.07
2022-10-22T06:53:58.955Z,33.07
2022-10-22T06:56:29.115Z,36.45
2022-10-22T06:58:58.565Z,33.57
2022-10-22T07:01:30.223Z,25.30
2022-10-22T07:03:58.350Z,31.43
2022-10-22T07:06:26.947Z,25.13
2022-10-22T07:08:56.477Z,25.15
2022-10-22T07:11:30.496Z,24.93
2022-10-22T07:13:59.737Z,20.90
2022-10-22T07:16:32.027Z,20.57
2022-10-22T07:19:00.979Z,25.00
2022-10-22T07:21:29.818Z,19.17
2022-10-22T07:23:58.229Z,29.55
2022-10-22T07:26:27.269Z,18.30
2022-10-22T07:28:55.031Z,18.27
2022-10-22T07:31:22.755Z,19.90
2022-10-22T07:33:50.604Z,19.03
2022-10-22T07:36:18.450Z,23.47
2022-10-22T07:38:48.114Z,17.23
2022-10-22T07:41:17.002Z,15.93
2022-10-22T07:46:12.553Z,14.13
2022-10-22T07:48:40.271Z,20.77
2022-10-22T07:51:08.118Z,15.77
2022-10-22T07:53:35.591Z,21.30
2022-10-22T07:56:03.237Z,19.93
2022-10-22T07:58:31.255Z,20.83
2022-10-22T08:01:05.968Z,17.87
2022-10-22T08:03:33.941Z,19.77
2022-10-22T08:06:01.532Z,20.07
2022-10-22T08:08:30.927Z,19.10
2022-10-22T08:11:01.033Z,25.97
2022-10-22T08:13:30.873Z,22.53
2022-10-22T08:16:00.876Z,21.97
2022-10-22T08:18:29.235Z,17.27
2022-10-22T08:20:57.621Z,21.67
2022-10-22T08:23:26.223Z,15.77
2022-10-22T08:25:55.141Z,17.40
2022-10-22T08:28:23.481Z,18.47
2022-10-22T08:30:51.415Z,17.73
2022-10-22T08:33:18.869Z,21.67
2022-10-22T08:35:50.272Z,19.53
2022-10-22T08:38:18.936Z,19.73
2022-10-22T08:40:57.350Z,20.10
2022-10-22T08:43:41.953Z,16.07
2022-10-22T08:46:29.600Z,14.07
2022-10-22T08:51:42.195Z,13.30
2022-10-22T08:54:21.837Z,12.95
2022-10-22T08:57:21.676Z,13.13
2022-10-22T09:00:11.636Z,14.37
2022-10-22T09:02:59.711Z,14.53
2022-10-22T09:05:37.538Z,12.70
2022-10-22T09:08:06.104Z,12.33
2022-10-22T09:10:37.080Z,14.85
2022-10-22T09:13:04.697Z,10.60
2022-10-22T09:15:32.212Z,11.35
2022-10-22T09:18:37.691Z,11.98
2022-10-22T09:21:34.259Z,11.30
2022-10-22T09:24:17.055Z,11.48
2022-10-22T09:26:44.598Z,11.05
2022-10-22T09:29:21.332Z,13.98
2022-10-22T09:31:49.036Z,10.18
2022-10-22T09:34:21.725Z,11.30
2022-10-22T09:36:58.128Z,12.23
2022-10-22T09:39:34.936Z,13.95
2022-10-22T09:42:02.543Z,7.82
2022-10-22T09:44:34.749Z,10.80
2022-10-22T09:47:43.683Z,8.82
2022-10-22T09:50:38.544Z,11.85
2022-10-22T09:53:14.581Z,12.20
2022-10-22T09:55:43.486Z,13.85
2022-10-22T09:58:14.716Z,8.98
2022-10-22T10:00:46.659Z,7.75
2022-10-22T10:03:20.496Z,11.52
2022-10-22T10:05:49.933Z,10.65
2022-10-22T10:08:18.102Z,9.75
2022-10-22T10:10:52.692Z,8.30
2022-10-22T10:13:42.320Z,10.80
2022-10-22T10:16:24.581Z,12.98
2022-10-22T10:19:08.152Z,19.73
2022-10-22T10:22:03.113Z,9.00
2022-10-22T10:25:08.602Z,15.73
2022-10-22T10:27:58.895Z,12.43
2022-10-22T10:30:26.702Z,10.55
2022-10-22T10:33:13.643Z,22.92
2022-10-22T10:36:00.520Z,15.35
2022-10-22T10:38:46.193Z,20.55
2022-10-22T10:41:19.551Z,14.00
2022-10-22T10:44:03.182Z,15.88
2022-10-22T10:46:54.002Z,14.73
2022-10-22T10:49:26.801Z,17.02
2022-10-22T10:52:21.395Z,19.25
2022-10-22T10:55:02.791Z,13.23
2022-10-22T10:57:45.315Z,14.25
2022-10-22T11:00:23.053Z,11.77
2022-10-22T11:03:18.322Z,14.30
2022-10-22T11:05:54.793Z,15.45
2022-10-22T11:08:25.502Z,18.65
2022-10-22T11:11:02.830Z,17.02
2022-10-22T11:13:48.558Z,13.70
2022-10-22T11:16:16.095Z,15.40
2022-10-22T11:19:15.476Z,15.33
2022-10-22T11:22:15.382Z,14.77
2022-10-22T11:25:13.720Z,17.25
2022-10-22T11:28:00.950Z,14.05
2022-10-22T11:30:36.608Z,12.88
2022-10-22T11:33:13.037Z,13.10
2022-10-22T11:35:45.284Z,13.10
2022-10-22T11:38:16.718Z,14.27
2022-10-22T11:41:07.210Z,11.05
2022-10-22T11:43:52.662Z,11.90
2022-10-22T11:46:20.439Z,12.25
2022-10-22T11:49:14.012Z,10.75
2022-10-22T11:51:43.996Z,12.70
2022-10-22T11:54:45.010Z,16.37
2022-10-22T11:57:15.866Z,15.82
2022-10-22T12:00:01.053Z,13.93
2022-10-22T12:02:28.746Z,10.88
2022-10-22T12:05:25.160Z,13.40
2022-10-22T12:08:01.511Z,17.98
2022-10-22T12:10:36.431Z,11.48
2022-10-22T12:13:24.441Z,15.48
2022-10-22T12:18:31.766Z,11.23
2022-10-22T12:20:59.716Z,11.60
2022-10-22T12:23:34.519Z,13.38
2022-10-22T12:26:04.832Z,9.88
2022-10-22T12:28:40.829Z,13.13
2022-10-22T12:31:16.975Z,18.77
2022-10-22T12:33:44.578Z,23.87
2022-10-22T12:36:19.078Z,25.62
2022-10-22T12:38:47.669Z,61.58
2022-10-22T12:41:15.612Z,22.10
2022-10-22T12:43:43.069Z,71.47
2022-10-22T12:46:16.546Z,42.55
2022-10-22T12:48:46.289Z,178.87
2022-10-22T12:51:20.687Z,88.50
2022-10-22T12:53:52.131Z,60.42
2022-10-22T12:56:26.872Z,65.72
2022-10-22T12:59:02.142Z,84.50
2022-10-22T13:01:36.655Z,23.30
2022-10-22T13:04:12.802Z,66.55
2022-10-22T13:06:46.137Z,52.40
2022-10-22T13:09:25.391Z,53.45
2022-10-22T13:12:01.933Z,22.90
2022-10-22T13:14:32.696Z,36.03
2022-10-22T13:17:13.735Z,30.17
2022-10-22T13:19:45.807Z,20.50
2022-10-22T13:22:27.282Z,22.58
2022-10-22T13:27:29.288Z,17.10
2022-10-22T13:29:59.636Z,17.55
2022-10-22T13:32:34.497Z,13.45
2022-10-22T13:35:03.979Z,18.83
2022-10-22T13:37:34.382Z,47.83
2022-10-22T13:40:02.084Z,28.48
2022-10-22T13:42:29.490Z,41.40
2022-10-22T13:44:56.886Z,20.98
2022-10-22T13:47:28.039Z,14.13
2022-10-22T13:49:59.092Z,14.85
2022-10-22T13:52:37.504Z,14.77
2022-10-22T13:55:24.721Z,17.80
2022-10-22T13:58:12.281Z,17.47
2022-10-22T14:00:42.466Z,18.08
2022-10-22T14:03:22.018Z,27.60
2022-10-22T14:05:50.160Z,21.80
2022-10-22T14:08:20.997Z,36.10
2022-10-22T14:10:48.902Z,24.98
2022-10-22T14:13:18.175Z,25.92
2022-10-22T14:15:47.027Z,30.98
2022-10-22T14:18:24.361Z,31.00
2022-10-22T14:21:01.281Z,37.77
2022-10-22T14:23:30.771Z,44.58
2022-10-22T14:25:59.711Z,47.22
2022-10-22T14:30:54.613Z,36.45
2022-10-22T14:33:33.031Z,34.42
2022-10-22T14:36:01.393Z,28.08
2022-10-22T14:38:29.962Z,25.95
2022-10-22T14:40:59.570Z,35.50
2022-10-22T14:43:33.087Z,28.73
2022-10-22T14:46:00.826Z,41.10
2022-10-22T14:48:28.244Z,67.57
2022-10-22T14:50:55.999Z,60.90
2022-10-22T14:53:23.760Z,52.23
2022-10-22T14:55:52.325Z,65.90
2022-10-22T14:58:19.842Z,123.85
2022-10-22T15:00:47.602Z,71.77
2022-10-22T15:03:15.018Z,53.85
2022-10-22T15:05:45.393Z,105.63
2022-10-22T15:08:15.214Z,102.10
2022-10-22T15:10:42.956Z,70.95
2022-10-22T15:13:10.614Z,134.20
2022-10-22T15:15:41.750Z,174.07
2022-10-22T15:18:09.229Z,136.15
2022-10-22T15:20:36.655Z,144.50
2022-10-22T15:23:04.416Z,205.18
2022-10-22T15:25:32.173Z,221.70
2022-10-22T15:28:07.422Z,163.62
2022-10-22T15:30:37.299Z,164.77
2022-10-22T15:33:05.213Z,139.97
2022-10-22T15:35:32.813Z,132.93
2022-10-22T15:38:00.687Z,102.57
2022-10-22T15:40:28.174Z,102.35
2022-10-22T15:42:55.613Z,110.82
2022-10-22T15:45:25.202Z,91.00
2022-10-22T15:47:52.625Z,101.32
2022-10-22T15:50:20.048Z,90.95
2022-10-22T15:52:47.861Z,113.33
2022-10-22T15:55:15.662Z,102.10
2022-10-22T15:57:43.198Z,95.80
2022-10-22T16:00:11.906Z,81.72
2022-10-22T16:02:39.813Z,215.77
2022-10-22T16:05:09.269Z,101.53
2022-10-22T16:07:36.727Z,80.70
2022-10-22T16:10:05.292Z,102.50
2022-10-22T16:12:33.519Z,92.88
2022-10-22T16:15:00.853Z,132.23
2022-10-22T16:17:28.348Z,97.83
2022-10-22T16:19:56.398Z,98.83
2022-10-22T16:22:23.877Z,117.87
2022-10-22T16:24:51.265Z,110.57
2022-10-22T16:27:19.024Z,105.07
2022-10-22T16:29:46.473Z,135.27
2022-10-22T16:32:13.843Z,114.10
2022-10-22T16:34:42.206Z,111.90
2022-10-22T16:37:10.505Z,92.53
2022-10-22T16:39:38.462Z,95.40
2022-10-22T16:42:06.892Z,89.75
2022-10-22T16:44:34.384Z,108.17
2022-10-22T16:47:01.764Z,101.47
2022-10-22T16:49:29.467Z,91.37
2022-10-22T16:51:56.952Z,103.53
2022-10-22T16:54:24.598Z,76.20
2022-10-22T16:56:52.337Z,55.30
2022-10-22T16:59:19.693Z,32.73
2022-10-22T17:01:47.113Z,37.87
2022-10-22T17:04:17.412Z,36.50
2022-10-22T17:06:44.877Z,115.70
2022-10-22T17:09:14.818Z,119.17
2022-10-22T17:11:42.608Z,104.40
2022-10-22T17:14:12.200Z,128.90
2022-10-22T17:16:39.931Z,117.07
2022-10-22T17:19:07.407Z,128.57
2022-10-22T17:21:34.822Z,117.87
2022-10-22T17:24:02.621Z,121.17
2022-10-22T17:26:33.356Z,117.67
2022-10-22T17:29:00.964Z,121.10
2022-10-22T17:31:35.683Z,123.07
2022-10-22T17:34:05.783Z,198.07
2022-10-22T17:36:35.883Z,138.17
2022-10-22T17:39:06.877Z,127.27
2022-10-22T17:41:37.125Z,91.97
2022-10-22T17:44:07.150Z,77.40
2022-10-22T17:46:35.037Z,80.23
2022-10-22T17:49:07.179Z,105.87
2022-10-22T17:51:34.974Z,86.93
2022-10-22T17:54:04.674Z,122.93
2022-10-22T17:56:35.374Z,116.30
2022-10-22T17:59:03.158Z,127.57
2022-10-22T18:01:33.413Z,124.80
2022-10-22T18:04:08.067Z,112.23
2022-10-22T18:06:36.291Z,121.57
2022-10-22T18:09:06.384Z,113.00
2022-10-22T18:11:36.754Z,101.27
2022-10-22T18:14:05.208Z,100.33
2022-10-22T18:16:32.728Z,93.90
2022-10-22T18:19:00.213Z,100.60
2022-10-22T18:21:29.664Z,107.53
2022-10-22T18:26:26.941Z,122.20
2022-10-22T18:28:57.056Z,99.70
2022-10-22T18:31:26.525Z,85.93
2022-10-22T18:33:55.220Z,83.40
2022-10-22T18:38:56.513Z,72.03
2022-10-22T18:41:27.105Z,59.67
2022-10-22T18:43:56.728Z,122.70
2022-10-22T18:46:27.247Z,98.63
2022-10-22T18:48:59.054Z,102.83
2022-10-22T18:51:30.773Z,105.73
2022-10-22T18:54:05.390Z,122.80
2022-10-22T18:56:40.963Z,111.03
2022-10-22T18:59:17.295Z,91.03
2022-10-22T19:01:44.905Z,86.83
2022-10-22T19:04:13.860Z,114.87
2022-10-22T19:06:45.298Z,153.12
2022-10-22T19:09:15.541Z,131.77
2022-10-22T19:11:45.380Z,121.93
2022-10-22T19:14:14.037Z,112.53
2022-10-22T19:16:41.793Z,97.45
2022-10-22T19:19:09.311Z,90.00
2022-10-22T19:21:38.358Z,88.43
2022-10-22T19:24:06.705Z,101.50
2022-10-22T19:26:35.448Z,100.47
2022-10-22T19:29:04.226Z,105.10
2022-10-22T19:34:01.389Z,88.13
2022-10-22T19:36:30.400Z,91.82
2022-10-22T19:38:59.480Z,101.67
2022-10-22T19:41:28.238Z,78.07
2022-10-22T19:43:57.498Z,96.55
2022-10-22T19:46:27.439Z,124.07
2022-10-22T19:48:57.374Z,117.30
2022-10-22T19:51:30.057Z,115.63
2022-10-22T19:53:59.960Z,117.47
2022-10-22T19:56:28.824Z,120.80
2022-10-22T19:58:56.766Z,136.60
2022-10-22T20:01:25.079Z,140.53
2022-10-22T20:03:53.338Z,146.95
2022-10-22T20:06:22.002Z,127.77
2022-10-22T20:08:52.379Z,134.23
2022-10-22T20:11:29.155Z,118.20
2022-10-22T20:13:57.468Z,99.60
2022-10-22T20:16:28.735Z,89.65
2022-10-22T20:19:00.989Z,108.73
2022-10-22T20:21:28.913Z,125.90
2022-10-22T20:23:57.547Z,98.53
2022-10-22T20:26:28.349Z,77.10
2022-10-22T20:28:57.964Z,73.73
2022-10-22T20:33:59.269Z,100.40
2022-10-22T20:36:27.939Z,118.70
2022-10-22T20:39:08.717Z,103.53
2022-10-22T20:41:40.747Z,115.33
2022-10-22T20:44:13.710Z,86.97
2022-10-22T20:46:41.151Z,80.30
2022-10-22T20:49:12.141Z,82.50
2022-10-22T20:51:39.591Z,74.03
2022-10-22T20:54:08.611Z,65.33
2022-10-22T20:56:38.948Z,72.50
2022-10-22T20:59:08.696Z,77.97
2022-10-22T21:01:54.615Z,68.63
2022-10-22T21:04:22.138Z,89.70
2022-10-22T21:06:50.745Z,118.53
2022-10-22T21:09:18.240Z,105.37
2022-10-22T21:11:46.321Z,103.30
2022-10-22T21:14:17.028Z,85.00
2022-10-22T21:19:13.035Z,71.85
2022-10-22T21:21:40.929Z,78.77
2022-10-22T21:24:08.961Z,68.70
2022-10-22T21:26:40.919Z,64.43
2022-10-22T21:29:09.893Z,84.47
2022-10-22T21:31:37.824Z,97.57
2022-10-22T21:34:05.291Z,105.37
2022-10-22T21:36:33.134Z,104.57
2022-10-22T21:39:01.134Z,108.33
2022-10-22T21:41:28.517Z,106.20
2022-10-22T21:43:56.249Z,103.80
2022-10-22T21:46:26.653Z,90.40
2022-10-22T21:48:59.319Z,77.47
2022-10-22T21:51:27.309Z,62.50
2022-10-22T21:53:56.133Z,57.60
2022-10-22T21:56:30.169Z,77.40
2022-10-22T21:58:57.897Z,52.93
2022-10-22T22:01:26.321Z,59.70
2022-10-22T22:03:54.480Z,53.45
2022-10-22T22:06:26.286Z,82.43
2022-10-22T22:08:55.762Z,82.47
2022-10-22T22:11:26.535Z,74.93
2022-10-22T22:13:55.463Z,81.30
2022-10-22T22:16:28.449Z,68.30
2022-10-22T22:18:58.695Z,56.40
2022-10-22T22:21:26.775Z,61.63
2022-10-22T22:23:54.364Z,65.07
2022-10-22T22:26:26.903Z,60.80
2022-10-22T22:28:59.502Z,62.47
2022-10-22T22:31:30.133Z,65.43
2022-10-22T22:34:00.252Z,71.80
2022-10-22T22:36:28.509Z,61.03
2022-10-22T22:38:56.767Z,60.55
2022-10-22T22:41:24.584Z,56.97
2022-10-22T22:43:51.929Z,53.87
2022-10-22T22:46:19.488Z,56.57
2022-10-22T22:48:50.733Z,66.10
2022-10-22T22:51:18.401Z,68.03
2022-10-22T22:53:46.454Z,67.50
2022-10-22T22:56:25.688Z,62.40
2022-10-22T22:58:53.446Z,64.15
2022-10-22T23:01:34.547Z,63.53
2022-10-22T23:04:13.333Z,55.53
2022-10-22T23:06:41.112Z,57.28
2022-10-22T23:09:11.684Z,52.17
2022-10-22T23:11:41.717Z,51.77
2022-10-22T23:14:13.874Z,52.73
2022-10-22T23:16:49.103Z,53.03
2022-10-22T23:19:19.860Z,54.77
2022-10-22T23:21:52.799Z,64.73
2022-10-22T23:24:23.757Z,55.13
2022-10-22T23:26:53.343Z,55.83
2022-10-22T23:29:30.929Z,67.97
2022-10-22T23:32:04.071Z,61.37
2022-10-22T23:34:32.300Z,64.20
2022-10-22T23:37:00.415Z,64.27
2022-10-22T23:39:29.635Z,58.63
2022-10-22T23:41:58.516Z,70.13
2022-10-22T23:44:26.052Z,62.40
2022-10-22T23:46:55.344Z,68.17
2022-10-22T23:49:23.112Z,94.87
2022-10-22T23:51:50.467Z,87.37
2022-10-22T23:54:18.812Z,73.87
2022-10-22T23:56:46.704Z,90.50
